createdAt,value
2018-10-17T00:01:58.394Z,14.00
2018-10-17T00:04:26.557Z,15.37
2018-10-17T00:06:54.798Z,15.57
2018-10-17T00:09:22.934Z,15.23
2018-10-17T00:11:51.097Z,14.07
2018-10-17T00:14:19.260Z,13.77
2018-10-17T00:16:47.425Z,15.03
2018-10-17T00:19:15.594Z,14.10
2018-10-17T00:21:43.745Z,14.07
2018-10-17T00:24:11.901Z,14.57
2018-10-17T00:26:40.062Z,15.30
2018-10-17T00:29:08.351Z,13.73
2018-10-17T00:31:36.364Z,14.47
2018-10-17T00:34:04.562Z,14.17
2018-10-17T00:36:32.742Z,13.77
2018-10-17T00:39:00.881Z,11.90
2018-10-17T00:41:29.033Z,13.23
2018-10-17T00:43:57.193Z,13.93
2018-10-17T00:46:25.333Z,13.30
2018-10-17T00:48:53.529Z,13.97
2018-10-17T00:51:21.667Z,13.60
2018-10-17T00:53:49.897Z,13.67
2018-10-17T00:56:18.062Z,15.23
2018-10-17T00:59:22.307Z,14.03
2018-10-17T01:01:50.459Z,14.27
2018-10-17T01:04:18.615Z,13.80
2018-10-17T01:06:46.784Z,13.90
2018-10-17T01:09:15.375Z,13.87
2018-10-17T01:11:43.641Z,14.03
2018-10-17T01:14:11.901Z,14.67
2018-10-17T02:24:30.310Z,14.30
2018-10-17T02:26:58.461Z,13.40
2018-10-17T02:29:27.213Z,14.37
2018-10-17T02:31:55.569Z,13.63
2018-10-17T02:34:23.738Z,13.80
2018-10-17T02:36:51.866Z,14.70
2018-10-17T02:39:20.016Z,15.00
2018-10-17T02:41:48.165Z,15.80
2018-10-17T02:44:16.330Z,14.17
2018-10-17T02:46:44.475Z,14.23
2018-10-17T02:49:12.676Z,14.40
2018-10-17T02:51:40.792Z,14.30
2018-10-17T02:54:08.941Z,14.30
2018-10-17T02:56:37.088Z,14.53
2018-10-17T02:59:05.372Z,14.40
2018-10-17T03:01:33.506Z,13.63
2018-10-17T03:04:01.665Z,13.40
2018-10-17T03:06:29.814Z,14.40
2018-10-17T03:08:57.987Z,15.50
2018-10-17T03:11:26.178Z,14.00
2018-10-17T03:13:54.313Z,13.70
2018-10-17T03:16:22.565Z,14.00
2018-10-17T03:18:50.708Z,14.60
2018-10-17T03:21:18.859Z,13.07
2018-10-17T03:23:47.094Z,14.57
2018-10-17T03:26:15.286Z,14.07
2018-10-17T03:28:43.428Z,14.13
2018-10-17T03:31:11.697Z,14.30
2018-10-17T03:33:39.709Z,15.13
2018-10-17T03:36:07.850Z,14.10
2018-10-17T03:38:36.007Z,13.00
2018-10-17T03:41:04.208Z,13.77
2018-10-17T03:43:32.342Z,13.33
2018-10-17T03:46:00.510Z,13.80
2018-10-17T03:48:28.654Z,14.47
2018-10-17T03:50:56.853Z,13.40
2018-10-17T03:53:25.074Z,14.47
2018-10-17T03:55:53.320Z,13.80
2018-10-17T03:58:21.481Z,13.30
2018-10-17T04:00:49.737Z,14.57
2018-10-17T04:03:17.891Z,13.60
2018-10-17T04:05:46.050Z,12.80
2018-10-17T04:08:14.221Z,14.60
2018-10-17T04:10:42.389Z,13.60
2018-10-17T04:13:10.561Z,13.77
2018-10-17T04:15:38.725Z,13.23
2018-10-17T04:18:06.870Z,15.17
2018-10-17T04:20:35.028Z,15.03
2018-10-17T04:23:03.222Z,14.67
2018-10-17T04:25:31.320Z,15.00
2018-10-17T04:27:59.457Z,14.20
2018-10-17T04:30:27.605Z,14.97
2018-10-17T04:32:55.801Z,13.80
2018-10-17T04:35:23.977Z,14.10
2018-10-17T04:37:52.113Z,15.27
2018-10-17T04:40:20.256Z,14.70
2018-10-17T04:42:48.419Z,15.30
2018-10-17T04:45:16.588Z,15.30
2018-10-17T04:47:44.841Z,14.70
2018-10-17T04:50:13.303Z,16.00
2018-10-17T04:52:41.503Z,14.80
2018-10-17T04:55:10.572Z,14.20
2018-10-17T04:57:38.845Z,14.90
2018-10-17T05:00:10.368Z,14.50
2018-10-17T05:02:38.674Z,14.70
2018-10-17T05:05:06.841Z,14.63
2018-10-17T05:07:35.010Z,14.77
2018-10-17T05:10:03.198Z,15.30
2018-10-17T05:12:31.389Z,16.47
2018-10-17T05:14:59.530Z,14.30
2018-10-17T05:17:27.720Z,13.97
2018-10-17T05:19:56.062Z,15.23
2018-10-17T05:22:24.217Z,15.50
2018-10-17T05:24:52.423Z,15.10
2018-10-17T05:27:20.537Z,15.23
2018-10-17T05:29:48.792Z,15.20
2018-10-17T05:32:16.882Z,15.33
2018-10-17T05:34:45.035Z,15.23
2018-10-17T05:37:13.281Z,15.87
2018-10-17T05:39:41.386Z,15.33
2018-10-17T05:42:09.686Z,14.90
2018-10-17T05:44:37.914Z,15.30
2018-10-17T05:47:06.020Z,16.03
2018-10-17T05:49:34.153Z,15.77
2018-10-17T05:52:02.289Z,16.40
2018-10-17T05:54:30.449Z,15.13
2018-10-17T05:56:58.602Z,14.73
2018-10-17T05:59:26.737Z,15.67
2018-10-17T06:01:55.150Z,14.63
2018-10-17T06:04:23.377Z,15.50
2018-10-17T06:06:51.572Z,15.00
2018-10-17T06:09:19.669Z,16.40
2018-10-17T06:11:47.830Z,17.00
2018-10-17T06:14:17.097Z,15.30
2018-10-17T06:16:46.102Z,15.83
2018-10-17T06:19:14.491Z,15.87
2018-10-17T06:21:42.643Z,15.70
2018-10-17T06:24:10.792Z,14.63
2018-10-17T06:26:39.098Z,16.03
2018-10-17T06:29:07.432Z,15.03
2018-10-17T06:31:35.545Z,16.03
2018-10-17T06:34:03.719Z,14.57
2018-10-17T06:36:31.834Z,14.83
2018-10-17T06:39:00.310Z,16.33
2018-10-17T06:41:28.442Z,14.47
2018-10-17T06:43:56.667Z,16.50
2018-10-17T06:46:24.745Z,16.73
2018-10-17T06:48:52.911Z,16.53
2018-10-17T06:51:21.075Z,15.83
2018-10-17T06:53:49.204Z,15.57
2018-10-17T06:56:17.341Z,17.57
2018-10-17T06:58:45.513Z,16.60
2018-10-17T07:01:13.736Z,16.80
2018-10-17T07:03:41.838Z,18.13
2018-10-17T07:06:09.982Z,16.50
2018-10-17T07:08:38.239Z,17.50
2018-10-17T07:11:06.435Z,16.93
2018-10-17T07:13:34.530Z,15.97
2018-10-17T07:16:02.774Z,15.80
2018-10-17T07:18:30.973Z,15.80
2018-10-17T07:20:59.120Z,16.50
2018-10-17T07:23:27.301Z,16.13
2018-10-17T07:25:55.469Z,16.63
2018-10-17T07:28:23.618Z,16.13
2018-10-17T07:30:51.781Z,16.30
2018-10-17T07:33:19.930Z,15.77
2018-10-17T07:35:48.189Z,15.23
2018-10-17T07:38:16.247Z,14.37
2018-10-17T07:40:44.409Z,15.40
2018-10-17T07:43:12.553Z,15.60
2018-10-17T07:45:40.782Z,14.47
2018-10-17T07:48:08.929Z,14.93
2018-10-17T07:50:37.014Z,13.90
2018-10-17T07:53:05.292Z,14.80
2018-10-17T07:55:33.318Z,14.07
2018-10-17T07:58:01.461Z,14.90
2018-10-17T08:00:29.692Z,14.40
2018-10-17T08:02:57.794Z,14.93
2018-10-17T08:05:25.958Z,14.30
2018-10-17T08:07:54.106Z,14.50
2018-10-17T08:10:22.310Z,13.20
2018-10-17T08:12:50.450Z,14.30
2018-10-17T08:15:18.597Z,13.37
2018-10-17T08:17:46.743Z,14.57
2018-10-17T08:20:14.896Z,14.80
2018-10-17T08:22:43.043Z,15.47
2018-10-17T08:25:12.234Z,15.17
2018-10-17T08:27:40.462Z,15.47
2018-10-17T08:30:09.363Z,15.13
2018-10-17T08:32:37.974Z,14.40
2018-10-17T08:35:06.358Z,14.33
2018-10-17T08:37:34.909Z,16.40
2018-10-17T08:40:02.767Z,15.10
2018-10-17T08:42:31.014Z,14.23
2018-10-17T08:44:59.333Z,14.70
2018-10-17T08:47:27.737Z,14.70
2018-10-17T08:49:56.033Z,14.50
2018-10-17T08:52:24.168Z,14.27
2018-10-17T08:54:52.330Z,13.43
2018-10-17T08:57:20.466Z,12.67
2018-10-17T08:59:48.611Z,13.83
2018-10-17T09:02:16.859Z,12.23
2018-10-17T09:04:44.918Z,12.07
2018-10-17T09:07:13.078Z,13.47
2018-10-17T09:09:41.225Z,13.73
2018-10-17T09:12:09.438Z,13.67
2018-10-17T09:14:37.549Z,12.67
2018-10-17T09:17:06.025Z,13.70
2018-10-17T09:19:34.204Z,13.47
2018-10-17T09:22:02.602Z,14.23
2018-10-17T09:24:30.476Z,12.13
2018-10-17T09:26:58.624Z,13.23
2018-10-17T09:29:26.862Z,11.67
2018-10-17T09:31:55.013Z,12.50
2018-10-17T09:34:23.169Z,12.10
2018-10-17T09:36:51.318Z,13.60
2018-10-17T09:39:19.470Z,12.80
2018-10-17T09:41:47.646Z,11.83
2018-10-17T09:44:15.782Z,12.97
2018-10-17T09:46:43.950Z,13.33
2018-10-17T09:49:12.106Z,12.70
2018-10-17T09:51:40.280Z,12.30
2018-10-17T09:54:08.515Z,11.00
2018-10-17T09:56:36.626Z,11.10
2018-10-17T09:59:04.806Z,12.20
2018-10-17T10:01:33.963Z,10.30
2018-10-17T10:04:02.300Z,11.20
2018-10-17T10:06:30.391Z,10.57
2018-10-17T10:08:58.533Z,10.40
2018-10-17T10:11:26.692Z,10.27
2018-10-17T10:13:54.868Z,9.53
2018-10-17T10:16:23.094Z,9.87
2018-10-17T10:18:51.225Z,9.63
2018-10-17T10:21:19.398Z,9.50
2018-10-17T10:23:47.672Z,9.57
2018-10-17T10:26:15.737Z,10.20
2018-10-17T10:28:43.955Z,11.13
2018-10-17T10:31:12.090Z,9.40
2018-10-17T10:33:40.285Z,9.60
2018-10-17T10:36:08.467Z,9.80
2018-10-17T10:38:36.579Z,9.50
2018-10-17T10:41:04.833Z,10.87
2018-10-17T10:43:32.990Z,10.03
2018-10-17T10:46:01.133Z,8.83
2018-10-17T10:48:29.294Z,9.77
2018-10-17T10:50:57.475Z,9.97
2018-10-17T10:53:25.586Z,8.90
2018-10-17T10:55:53.811Z,9.87
2018-10-17T10:58:22.090Z,9.70
2018-10-17T11:00:50.103Z,10.30
2018-10-17T11:03:18.271Z,9.60
2018-10-17T11:05:46.775Z,10.60
2018-10-17T11:08:14.654Z,8.60
2018-10-17T11:10:42.761Z,8.77
2018-10-17T11:13:10.974Z,9.20
2018-10-17T11:15:39.341Z,9.30
2018-10-17T11:18:07.494Z,8.77
2018-10-17T11:20:35.686Z,9.10
2018-10-17T11:23:03.882Z,8.30
2018-10-17T11:25:32.005Z,8.77
2018-10-17T11:28:00.174Z,8.60
2018-10-17T11:30:28.311Z,9.20
2018-10-17T11:32:56.457Z,9.07
2018-10-17T11:35:24.625Z,9.13
2018-10-17T11:37:52.799Z,8.90
2018-10-17T11:40:20.983Z,9.30
2018-10-17T11:42:49.056Z,9.30
2018-10-17T11:45:17.272Z,8.97
2018-10-17T11:47:45.403Z,9.07
2018-10-17T11:50:13.521Z,8.70
2018-10-17T11:52:41.687Z,8.63
2018-10-17T11:55:10.009Z,8.67
2018-10-17T11:57:38.194Z,8.43
2018-10-17T12:00:08.384Z,8.80
2018-10-17T12:02:36.550Z,7.80
2018-10-17T12:05:06.606Z,8.73
2018-10-17T12:07:34.670Z,7.60
2018-10-17T12:10:02.849Z,7.90
2018-10-17T12:12:31.005Z,7.37
2018-10-17T12:14:59.170Z,8.87
2018-10-17T12:17:27.308Z,7.63
2018-10-17T12:19:55.513Z,7.77
2018-10-17T12:22:23.577Z,8.00
2018-10-17T12:24:51.740Z,8.10
2018-10-17T12:27:19.975Z,7.93
2018-10-17T12:29:48.049Z,8.00
2018-10-17T12:32:16.302Z,8.53
2018-10-17T12:34:44.457Z,7.90
2018-10-17T12:37:12.606Z,7.80
2018-10-17T12:39:40.825Z,8.07
2018-10-17T12:42:08.882Z,8.60
2018-10-17T12:44:37.131Z,8.40
2018-10-17T12:47:05.478Z,7.70
2018-10-17T12:49:34.901Z,8.60
2018-10-17T12:52:03.108Z,8.77
2018-10-17T12:54:31.256Z,8.23
2018-10-17T12:56:59.407Z,8.33
2018-10-17T12:59:27.623Z,8.73
2018-10-17T13:01:55.810Z,8.80
2018-10-17T13:04:23.982Z,8.43
2018-10-17T13:06:52.169Z,8.97
2018-10-17T13:09:20.321Z,8.20
2018-10-17T13:11:48.483Z,7.83
2018-10-17T13:14:16.685Z,7.53
2018-10-17T13:16:45.711Z,9.53
2018-10-17T13:19:13.944Z,8.13
2018-10-17T13:21:42.105Z,8.47
2018-10-17T13:24:10.283Z,7.93
2018-10-17T13:26:38.455Z,8.90
2018-10-17T13:29:06.859Z,7.63
2018-10-17T13:31:35.089Z,8.00
2018-10-17T13:34:03.315Z,8.23
2018-10-17T13:36:31.451Z,8.10
2018-10-17T13:38:59.654Z,7.30
2018-10-17T13:41:27.865Z,9.97
2018-10-17T13:43:56.038Z,8.17
2018-10-17T13:46:24.214Z,7.77
2018-10-17T13:48:52.378Z,8.60
2018-10-17T13:51:20.534Z,8.60
2018-10-17T13:53:48.697Z,8.30
2018-10-17T13:56:16.828Z,9.30
2018-10-17T13:58:45.011Z,7.40
2018-10-17T14:01:13.192Z,8.67
2018-10-17T14:03:41.341Z,8.30
2018-10-17T14:06:09.497Z,9.60
2018-10-17T14:08:37.647Z,7.77
2018-10-17T14:11:06.117Z,9.73
2018-10-17T14:13:34.302Z,8.37
2018-10-17T14:16:02.470Z,8.60
2018-10-17T14:18:30.652Z,8.37
2018-10-17T14:20:58.803Z,8.43
2018-10-17T14:23:27.198Z,7.60
2018-10-17T14:25:55.277Z,8.93
2018-10-17T14:28:23.604Z,8.47
2018-10-17T14:30:51.748Z,8.70
2018-10-17T14:33:19.908Z,8.87
2018-10-17T14:35:48.109Z,8.47
2018-10-17T14:38:16.294Z,9.07
2018-10-17T14:40:44.514Z,9.10
2018-10-17T14:43:12.607Z,9.20
2018-10-17T14:45:40.751Z,8.87
2018-10-17T14:48:09.232Z,9.00
2018-10-17T14:50:37.396Z,9.93
2018-10-17T14:53:05.901Z,9.50
2018-10-17T14:55:34.048Z,9.60
2018-10-17T14:58:02.337Z,10.03
2018-10-17T15:00:30.478Z,9.53
2018-10-17T15:02:58.703Z,10.43
2018-10-17T15:05:27.338Z,10.87
2018-10-17T15:07:55.493Z,10.33
2018-10-17T15:10:23.785Z,10.43
2018-10-17T15:12:51.858Z,10.57
2018-10-17T15:15:20.114Z,10.73
2018-10-17T15:17:48.185Z,11.00
2018-10-17T15:20:16.352Z,11.23
2018-10-17T15:22:44.536Z,11.20
2018-10-17T15:25:12.713Z,12.07
2018-10-17T15:27:40.882Z,11.10
2018-10-17T15:30:09.135Z,10.87
2018-10-17T15:32:37.668Z,11.33
2018-10-17T15:35:06.674Z,11.37
2018-10-17T15:37:34.822Z,11.80
2018-10-17T15:40:03.005Z,10.63
2018-10-17T15:42:31.158Z,10.83
2018-10-17T15:44:59.330Z,9.33
2018-10-17T15:47:27.503Z,10.60
2018-10-17T15:49:55.694Z,10.20
2018-10-17T15:52:24.413Z,11.00
2018-10-17T15:54:53.749Z,10.50
2018-10-17T15:57:22.531Z,11.27
2018-10-17T15:59:50.704Z,10.40
2018-10-17T16:02:18.932Z,10.47
2018-10-17T16:04:47.017Z,11.57
2018-10-17T16:07:15.174Z,9.97
2018-10-17T16:09:43.358Z,10.80
2018-10-17T16:12:11.563Z,11.77
2018-10-17T16:14:39.669Z,11.00
2018-10-17T16:17:07.884Z,10.37
2018-10-17T16:19:36.053Z,11.70
2018-10-17T16:22:04.260Z,11.40
2018-10-17T16:24:32.400Z,11.33
2018-10-17T16:27:00.576Z,12.47
2018-10-17T16:29:29.091Z,12.43
2018-10-17T16:31:57.315Z,12.80
2018-10-17T16:34:25.443Z,13.13
2018-10-17T16:36:53.621Z,14.43
2018-10-17T16:39:21.798Z,13.70
2018-10-17T16:41:49.969Z,12.20
2018-10-17T16:44:19.017Z,10.70
2018-10-17T16:46:47.190Z,11.20
2018-10-17T16:49:15.334Z,10.93
2018-10-17T16:51:43.895Z,11.07
2018-10-17T16:54:12.110Z,15.90
2018-10-17T16:56:40.235Z,12.50
2018-10-17T16:59:08.422Z,12.20
2018-10-17T17:01:36.566Z,11.70
2018-10-17T17:04:04.735Z,12.03
2018-10-17T17:06:32.962Z,12.90
2018-10-17T17:09:01.162Z,12.83
2018-10-17T17:11:29.301Z,14.47
2018-10-17T17:13:57.454Z,13.27
2018-10-17T17:16:26.089Z,11.87
2018-10-17T17:18:54.141Z,11.67
2018-10-17T17:21:22.297Z,12.43
2018-10-17T17:23:50.449Z,11.90
2018-10-17T17:26:18.603Z,12.30
2018-10-17T17:28:46.855Z,10.93
2018-10-17T17:31:15.053Z,12.50
2018-10-17T17:33:43.198Z,11.50
2018-10-17T17:36:11.986Z,13.17
2018-10-17T17:38:40.088Z,12.37
2018-10-17T17:41:08.248Z,13.57
2018-10-17T17:43:36.408Z,12.00
2018-10-17T17:46:04.627Z,12.47
2018-10-17T17:48:32.786Z,13.00
2018-10-17T17:51:00.969Z,12.93
2018-10-17T17:53:29.140Z,12.70
2018-10-17T17:55:57.369Z,13.10
2018-10-17T17:58:26.293Z,12.37
2018-10-17T18:00:54.409Z,13.43
2018-10-17T18:03:22.590Z,11.77
2018-10-17T18:05:50.794Z,12.83
2018-10-17T18:08:19.002Z,13.57
2018-10-17T18:10:47.199Z,13.90
2018-10-17T18:13:15.369Z,13.30
2018-10-17T18:15:45.494Z,12.70
2018-10-17T18:18:14.016Z,13.07
2018-10-17T18:20:42.210Z,12.87
2018-10-17T18:23:10.514Z,13.57
2018-10-17T18:25:38.829Z,12.93
2018-10-17T18:28:07.112Z,12.67
2018-10-17T18:30:35.251Z,14.37
2018-10-17T18:33:03.431Z,13.70
2018-10-17T18:35:31.620Z,14.17
2018-10-17T18:37:59.810Z,15.60
2018-10-17T18:40:28.025Z,14.90
2018-10-17T18:42:56.208Z,13.73
2018-10-17T18:45:24.465Z,15.47
2018-10-17T18:47:52.752Z,15.93
2018-10-17T18:50:20.837Z,14.40
2018-10-17T18:52:49.037Z,14.77
2018-10-17T18:55:17.246Z,14.73
2018-10-17T18:57:45.424Z,14.10
2018-10-17T19:00:13.604Z,14.27
2018-10-17T19:02:41.773Z,15.20
2018-10-17T19:05:09.944Z,13.17
2018-10-17T19:07:38.127Z,14.23
2018-10-17T19:10:06.319Z,13.87
2018-10-17T19:12:34.473Z,13.53
2018-10-17T19:15:02.730Z,13.50
2018-10-17T19:17:30.881Z,14.10
2018-10-17T19:19:59.073Z,14.30
2018-10-17T19:22:27.241Z,13.77
2018-10-17T19:24:55.406Z,13.63
2018-10-17T19:27:23.580Z,14.50
2018-10-17T19:29:53.033Z,14.23
2018-10-17T19:32:21.215Z,14.90
2018-10-17T19:34:49.386Z,16.53
2018-10-17T19:37:17.563Z,15.00
2018-10-17T19:39:45.710Z,15.83
2018-10-17T19:42:13.890Z,14.27
2018-10-17T19:44:42.074Z,15.10
2018-10-17T19:47:10.246Z,15.33
2018-10-17T19:49:38.419Z,15.50
2018-10-17T19:52:06.851Z,16.63
2018-10-17T19:54:35.034Z,15.33
2018-10-17T19:57:03.261Z,15.10
2018-10-17T19:59:31.455Z,14.17
2018-10-17T20:01:59.679Z,15.07
2018-10-17T20:04:27.814Z,14.40
2018-10-17T20:06:55.977Z,14.93
2018-10-17T20:09:24.163Z,14.80
2018-10-17T20:11:52.486Z,14.70
2018-10-17T20:14:20.772Z,15.13
2018-10-17T20:16:49.529Z,19.77
2018-10-17T20:19:19.214Z,18.40
2018-10-17T20:21:47.628Z,19.00
2018-10-17T20:24:16.717Z,18.50
2018-10-17T20:26:44.900Z,18.13
2018-10-17T20:29:13.084Z,17.67
2018-10-17T20:31:41.253Z,16.87
2018-10-17T20:34:09.438Z,15.60
2018-10-17T20:36:37.592Z,16.00
2018-10-17T20:39:09.041Z,16.07
2018-10-17T20:41:37.237Z,15.80
2018-10-17T20:44:05.839Z,15.27
2018-10-17T20:46:34.052Z,16.17
2018-10-17T20:49:02.237Z,18.30
2018-10-17T20:51:30.644Z,16.97
2018-10-17T20:53:58.953Z,16.37
2018-10-17T20:56:27.297Z,13.97
2018-10-17T20:58:55.591Z,15.70
2018-10-17T21:01:24.283Z,15.70
2018-10-17T21:03:52.433Z,14.77
2018-10-17T21:06:20.578Z,17.03
2018-10-17T21:08:48.739Z,16.40
2018-10-17T21:11:17.094Z,15.20
2018-10-17T21:13:45.361Z,15.17
2018-10-17T21:16:13.584Z,15.57
2018-10-17T21:18:41.790Z,15.63
2018-10-17T21:21:09.909Z,14.10
2018-10-17T21:23:38.065Z,15.37
2018-10-17T21:26:06.342Z,15.87
2018-10-17T21:28:34.450Z,16.50
2018-10-17T21:31:02.618Z,14.70
2018-10-17T21:33:30.796Z,14.60
2018-10-17T21:35:59.106Z,15.10
2018-10-17T21:38:27.286Z,15.97
2018-10-17T21:40:55.457Z,14.77
2018-10-17T21:43:23.601Z,14.97
2018-10-17T21:45:51.857Z,14.57
2018-10-17T21:48:20.105Z,15.17
2018-10-17T21:50:48.367Z,13.50
2018-10-17T21:53:16.552Z,14.50
2018-10-17T21:55:44.761Z,15.47
2018-10-17T21:58:12.985Z,14.13
2018-10-17T22:00:41.234Z,16.17
2018-10-17T22:03:09.512Z,14.73
2018-10-17T22:05:37.716Z,14.70
2018-10-17T22:08:06.126Z,14.47
2018-10-17T22:10:34.392Z,15.07
2018-10-17T22:13:02.704Z,14.80
2018-10-17T22:15:30.921Z,14.33
2018-10-17T22:17:59.158Z,15.63
2018-10-17T22:20:27.456Z,15.40
2018-10-17T22:22:55.657Z,15.47
2018-10-17T22:25:24.128Z,13.97
2018-10-17T22:27:52.326Z,15.93
2018-10-17T22:30:20.530Z,14.90
2018-10-17T22:32:48.777Z,14.00
2018-10-17T22:35:17.019Z,13.90
2018-10-17T22:37:45.234Z,14.10
2018-10-17T22:40:13.452Z,14.50
2018-10-17T22:42:41.761Z,15.30
2018-10-17T22:45:09.963Z,16.70
2018-10-17T22:47:38.175Z,15.77
2018-10-17T22:50:07.117Z,15.47
2018-10-17T22:52:35.291Z,14.70
2018-10-17T22:55:03.553Z,13.67
2018-10-17T22:57:31.746Z,15.13
2018-10-17T22:59:59.948Z,14.67
2018-10-17T23:02:28.206Z,14.20
2018-10-17T23:04:56.719Z,14.70
2018-10-17T23:07:25.097Z,14.37
2018-10-17T23:09:53.307Z,15.30
2018-10-17T23:12:21.480Z,14.77
2018-10-17T23:14:49.677Z,15.67
2018-10-17T23:17:17.917Z,14.57
2018-10-17T23:19:46.095Z,14.10
2018-10-17T23:22:14.297Z,15.40
2018-10-17T23:24:42.498Z,15.67
2018-10-17T23:27:10.688Z,15.17
2018-10-17T23:29:38.889Z,14.07
2018-10-17T23:32:07.098Z,16.10
2018-10-17T23:34:35.286Z,14.87
2018-10-17T23:37:03.462Z,15.23
2018-10-17T23:39:31.645Z,13.60
2018-10-17T23:41:59.865Z,14.90
2018-10-17T23:44:28.038Z,14.43
2018-10-17T23:46:56.245Z,15.77
2018-10-17T23:49:24.444Z,14.83
2018-10-17T23:51:52.655Z,14.83
2018-10-17T23:54:20.858Z,15.30
2018-10-17T23:56:49.048Z,14.50
2018-10-17T23:59:17.247Z,15.20
